Airfield :
LOGIN :

Register | Disclaimer

   EN    FR    IT 

 










Legend :    VFR   Marginal VFR   IFR   Intensive IFR   Very Intensive IFR
Visi :
Ceiling :
>= 8 km
>= 3000ft
5 to 8 km
1000 to 3000 ft
1500m to 5 km
500 to 1000 ft
800 to 1500m
200 to 500 ft
< 800m
< 200 ft
Symbols :   Thunderstorms  Fog  Heavy snow  Heavy precipitations  Wind > 20 kt
SIGMETs :     Misc.  Thunderstorms  Icing  Turbulence  Mountain Waves  Volcanic Ashes







- Airport Elevation : 978 ft
- IATA code : LNZ


LOWL - Linz

CURRENT METAR :
  • 182150Z AUTO 22002KT 0200 R26/0225N FG VV000 08/08 Q1016

EXPIRED METARs :
  • 182120Z AUTO 26003KT 0150 R26/0250N FG FEW000 BKN001 08/08 Q1016
  • 182050Z AUTO 25002KT 0200 R26/0250D FG FEW000 BKN001 09/08 Q1016 TEMPO 0800 BCFG BKN005
  • 182020Z AUTO VRB01KT 0300 R26/0800D BCFG FEW002 BKN004 09/09 Q1016 TEMPO 1000 BR SCT004
  • 181950Z AUTO VRB01KT 0500 0200E R26/0250D FG FEW002 SCT006 10/09 Q1016 TEMPO 1500 BR
  • 181920Z AUTO 05002KT 3100 BR FEW002 10/09 Q1016 TEMPO 0600 BCFG

TAF AMD TAF LOWL
Valid from the 18 at 22:00 until the 19 at 18:00 UTC


182200Z 1822/1918 VRB02KT 0300 FG VV002 TX18/1914Z TN08/1823Z
TEMPO 1822/1908 0200 FG VV001
PROB30
TEMPO 1822/1908 0100 FG VV000
BECMG 1908/1910 3000 BR SCT003 BKN007
BECMG 1910/1912 8000 FEW015
No reported NOTAMs for that airfield.



MET'MAP, your aeronautical weather chart ! - Copyright ORBIFLY December 2007 - Disclaimer

ORBIFLY MET'MAP TEAM :

Programming & Development : Alexandra Zaïnal
Concept & Development : Baudouin d'Aumeries
Co-Development & Prog : Marc-Olivier Méhu
Technical & hardware support : Manuel Goepfert

Contact : metmap@orbifly.com




SOURCES & CREDITS :

   NOAA